Weather at Fassala Heliport

Public forecast

Using degrees Celsius for public forecast. Weather courtesy of forecast.io.

Closest aviation weather report (METAR) to Fassala Heliport

Closest report is Mopti Ambodédjo International Airport, 104.2 nm (192.9 km) SE.

2024/07/24 14:00 (retrieved 46 minutes ago)

GAMB 241400Z 18006KT 9999 BKN030 34/24 Q1013

Closest aviation forecast (TAF) to Fassala Heliport

Closest forecast is Gao Airport, 321.1 nm (594.8 km) E.

2024/07/24 12:27 (retrieved 2 hours ago)

TAF TAF GAGO 241100Z 2412/2512 24010G20KT 6000 FEW030 PROB40 TEMPO 2414/2422 VRB18G30KT 3000 TSRA BLDU BKN030 FEW040CB PROB40 TEMPO 2423/2504 10020G35KT 2500 TSRA BLDU SCT030 FEW040CB